Time;durP1;ratioP1;P1;durP2;ratioP2;P2;SDS_P1;SDS_P2;PMS_P1;PMS_P2;Temp;Humidity;BMP_temperature;BMP_pressure;BME280_temperature;BME280_humidity;BME280_pressure;Samples;Min_cycle;Max_cycle;Signal;HPM_P1;HPM_P2
2021/01/24 00:00:34;;;;;;;3.20;2.50;;;19.80;48.70;;;;;;5053230;28;20488;-69
2021/01/24 00:03:00;;;;;;;3.33;3.00;;;19.90;48.60;;;;;;5053727;28;20484;-68
2021/01/24 00:05:27;;;;;;;3.20;3.00;;;19.90;49.30;;;;;;5052173;28;20485;-68
2021/01/24 00:07:54;;;;;;;2.73;2.63;;;19.90;48.40;;;;;;5054942;28;20554;-68
2021/01/24 00:10:20;;;;;;;3.27;3.07;;;20.00;48.40;;;;;;5053345;28;20474;-68
2021/01/24 00:12:46;;;;;;;2.73;2.63;;;19.90;48.40;;;;;;5051506;28;20479;-68
2021/01/24 00:15:12;;;;;;;2.47;2.37;;;19.90;48.40;;;;;;5053632;28;20488;-68
2021/01/24 00:17:39;;;;;;;3.10;2.90;;;19.90;48.40;;;;;;5054958;28;20474;-68
2021/01/24 00:20:08;;;;;;;2.30;2.20;;;19.80;48.30;;;;;;5054636;28;20474;-69
2021/01/24 00:22:35;;;;;;;2.87;2.77;;;19.80;48.30;;;;;;5051833;28;20533;-68
2021/01/24 00:25:01;;;;;;;3.33;3.13;;;19.80;48.30;;;;;;5052573;28;20482;-67
2021/01/24 00:27:28;;;;;;;2.57;2.33;;;19.80;48.30;;;;;;5051561;28;20474;-68
2021/01/24 00:29:54;;;;;;;2.90;2.70;;;19.80;48.30;;;;;;5044292;28;20490;-68
2021/01/24 00:32:20;;;;;;;2.70;2.60;;;19.70;48.20;;;;;;5066047;28;20473;-68
2021/01/24 00:34:46;;;;;;;3.00;2.57;;;19.80;48.30;;;;;;5042415;28;20483;-68
2021/01/24 00:37:12;;;;;;;3.10;2.93;;;19.80;48.20;;;;;;5047092;28;20528;-68
2021/01/24 00:39:39;;;;;;;3.00;2.80;;;19.70;48.20;;;;;;5054228;28;20607;-68
2021/01/24 00:42:05;;;;;;;2.47;2.27;;;19.70;48.10;;;;;;5051201;28;20494;-68
2021/01/24 00:44:32;;;;;;;2.60;2.50;;;19.70;48.10;;;;;;5052627;28;20474;-69
2021/01/24 00:46:58;;;;;;;2.60;2.40;;;19.70;48.10;;;;;;5052800;28;20478;-69
2021/01/24 00:49:24;;;;;;;2.30;2.20;;;19.70;48.00;;;;;;5052851;28;20478;-69
2021/01/24 00:51:50;;;;;;;3.00;2.80;;;19.70;47.90;;;;;;5049322;28;20840;-68
2021/01/24 00:54:16;;;;;;;2.80;2.60;;;19.80;47.90;;;;;;5053213;28;20489;-69
2021/01/24 00:56:43;;;;;;;2.93;2.73;;;19.80;47.90;;;;;;5051238;28;20482;-69
2021/01/24 00:59:09;;;;;;;3.10;2.93;;;19.80;48.50;;;;;;5036414;28;20512;-68
2021/01/24 01:01:36;;;;;;;2.93;2.73;;;19.80;47.60;;;;;;5052030;28;21243;-68
2021/01/24 01:04:02;;;;;;;2.93;2.73;;;19.90;47.60;;;;;;5057224;28;20847;-68
2021/01/24 01:06:28;;;;;;;2.77;2.40;;;19.80;47.40;;;;;;5051246;28;21079;-68
2021/01/24 01:08:54;;;;;;;2.37;2.27;;;19.90;47.40;;;;;;5053141;28;21131;-69
2021/01/24 01:11:20;;;;;;;2.40;2.30;;;19.90;47.30;;;;;;5051277;28;20841;-68
2021/01/24 01:13:47;;;;;;;3.07;2.80;;;19.90;47.20;;;;;;5053372;28;20490;-68
2021/01/24 01:16:13;;;;;;;2.57;2.47;;;19.90;47.30;;;;;;5052118;28;20470;-69
2021/01/24 01:18:39;;;;;;;3.60;3.30;;;19.90;47.40;;;;;;5037187;28;20486;-69
2021/01/24 01:21:05;;;;;;;3.33;3.03;;;19.80;47.30;;;;;;5054314;28;20482;-68
2021/01/24 01:23:32;;;;;;;2.73;2.63;;;19.80;47.20;;;;;;5053218;28;20501;-68
2021/01/24 01:25:58;;;;;;;3.03;2.83;;;19.80;47.20;;;;;;5050317;28;20500;-69
2021/01/24 01:28:24;;;;;;;2.60;2.33;;;19.80;47.20;;;;;;5052048;28;20485;-68
2021/01/24 01:30:51;;;;;;;3.10;2.90;;;19.80;47.20;;;;;;5054373;28;20486;-68
2021/01/24 01:33:17;;;;;;;3.20;3.00;;;19.80;47.20;;;;;;5047105;28;20481;-68
2021/01/24 01:35:43;;;;;;;3.03;2.70;;;19.80;47.20;;;;;;5054683;28;20485;-69
2021/01/24 01:38:09;;;;;;;3.67;3.40;;;19.80;47.20;;;;;;5040819;28;20481;-69
2021/01/24 01:40:36;;;;;;;3.33;3.13;;;19.80;47.10;;;;;;5051505;28;20487;-69
2021/01/24 01:43:02;;;;;;;2.80;2.70;;;19.80;47.10;;;;;;5051943;28;20486;-69
2021/01/24 01:45:28;;;;;;;3.20;3.00;;;19.80;47.20;;;;;;5035672;28;20483;-69
2021/01/24 01:47:55;;;;;;;2.80;2.60;;;19.80;47.10;;;;;;5050431;28;20539;-69
2021/01/24 01:50:21;;;;;;;2.87;2.57;;;19.80;47.00;;;;;;5051411;28;20970;-69
2021/01/24 01:52:47;;;;;;;2.87;2.77;;;19.80;47.00;;;;;;5051388;28;20489;-69
2021/01/24 01:55:14;;;;;;;3.00;2.80;;;19.80;47.00;;;;;;5051706;28;21131;-68
2021/01/24 01:57:40;;;;;;;2.87;2.73;;;19.80;46.90;;;;;;5056823;28;20478;-69
2021/01/24 02:00:07;;;;;;;3.37;3.10;;;19.80;46.90;;;;;;5057286;28;20477;-69
2021/01/24 02:02:40;;;;;;;2.20;2.10;;;19.80;47.00;;;;;;5044210;28;20482;-69
2021/01/24 02:05:11;;;;;;;2.50;2.40;;;19.80;46.90;;;;;;5056524;28;20588;-69
2021/01/24 02:07:39;;;;;;;3.13;2.70;;;19.80;46.80;;;;;;5057205;28;21040;-69
2021/01/24 02:10:08;;;;;;;3.43;3.13;;;19.80;46.70;;;;;;5056537;28;20472;-68
2021/01/24 02:12:37;;;;;;;2.87;2.77;;;19.80;46.90;;;;;;5054235;28;20945;-69
2021/01/24 02:15:05;;;;;;;3.70;3.50;;;19.70;46.70;;;;;;5061492;28;21214;-69
2021/01/24 02:17:33;;;;;;;2.60;2.50;;;19.70;46.70;;;;;;5052937;28;20478;-69
2021/01/24 02:20:05;;;;;;;3.37;2.70;;;19.70;46.70;;;;;;5044836;28;20483;-69
2021/01/24 02:22:35;;;;;;;3.63;3.00;;;19.70;47.40;;;;;;5053160;28;20604;-68
2021/01/24 02:25:04;;;;;;;2.90;2.80;;;19.70;46.70;;;;;;5056499;28;21009;-68
2021/01/24 02:27:36;;;;;;;3.37;3.17;;;19.70;46.60;;;;;;5053320;28;20497;-69
2021/01/24 02:30:23;;;;;;;3.27;3.00;;;19.80;46.50;;;;;;5054295;28;20485;-68
2021/01/24 02:32:53;;;;;;;3.40;3.10;;;19.80;46.40;;;;;;5053339;28;20560;-69
2021/01/24 02:35:19;;;;;;;3.07;2.87;;;19.80;46.40;;;;;;5054497;28;21612;-68
2021/01/24 02:37:45;;;;;;;3.80;3.33;;;19.80;46.40;;;;;;5054631;28;20482;-69
2021/01/24 02:40:12;;;;;;;5.03;3.53;;;19.80;46.40;;;;;;5059084;28;20488;-69
2021/01/24 02:42:38;;;;;;;3.20;3.00;;;19.80;46.40;;;;;;5053372;28;21090;-68
2021/01/24 02:45:05;;;;;;;3.43;3.13;;;19.80;46.40;;;;;;5057748;28;21517;-68
2021/01/24 02:47:32;;;;;;;3.33;3.03;;;19.80;46.40;;;;;;5052994;28;20481;-69
2021/01/24 02:49:58;;;;;;;4.00;3.70;;;19.70;46.40;;;;;;5053678;28;20478;-68
2021/01/24 02:52:25;;;;;;;3.33;3.07;;;19.70;46.40;;;;;;5053659;28;20478;-69
2021/01/24 02:54:51;;;;;;;4.40;4.03;;;19.70;46.40;;;;;;5057044;28;20494;-68
2021/01/24 02:57:17;;;;;;;2.97;2.83;;;19.70;46.40;;;;;;5055676;28;20473;-68
2021/01/24 02:59:43;;;;;;;4.23;2.10;;;19.70;46.40;;;;;;5055660;28;20487;-69
2021/01/24 03:02:09;;;;;;;3.67;3.20;;;19.70;46.40;;;;;;5056724;28;20485;-69
2021/01/24 03:04:36;;;;;;;3.90;3.60;;;19.70;46.40;;;;;;5053857;28;20493;-68
2021/01/24 03:07:04;;;;;;;3.23;2.90;;;19.70;46.40;;;;;;5054848;28;20554;-69
2021/01/24 03:09:30;;;;;;;3.20;2.90;;;19.70;46.40;;;;;;5054656;28;21322;-69
2021/01/24 03:11:56;;;;;;;3.30;3.10;;;19.70;46.40;;;;;;5055862;28;21175;-69
2021/01/24 03:14:23;;;;;;;3.90;3.60;;;19.70;46.40;;;;;;5057002;28;21012;-68
2021/01/24 03:16:49;;;;;;;2.90;2.80;;;19.70;46.40;;;;;;5056814;28;20493;-69
2021/01/24 03:19:16;;;;;;;3.37;3.10;;;19.70;46.20;;;;;;5055292;28;20489;-69
2021/01/24 03:21:43;;;;;;;4.50;4.20;;;19.70;46.20;;;;;;5054214;28;20490;-69
2021/01/24 03:24:10;;;;;;;3.30;3.00;;;19.70;46.00;;;;;;5051097;28;20485;-69
2021/01/24 03:26:36;;;;;;;3.33;3.13;;;19.70;45.90;;;;;;5066030;28;20538;-69
2021/01/24 03:29:02;;;;;;;3.20;2.90;;;19.80;46.00;;;;;;5054729;28;20488;-69
2021/01/24 03:31:30;;;;;;;3.33;3.10;;;19.80;45.90;;;;;;5055034;28;20542;-69
2021/01/24 03:33:56;;;;;;;3.30;3.00;;;19.80;45.80;;;;;;5050230;28;21444;-68
2021/01/24 03:36:22;;;;;;;3.30;3.00;;;19.80;45.80;;;;;;5054673;28;21068;-67
2021/01/24 03:38:49;;;;;;;3.77;3.47;;;19.80;45.80;;;;;;5054396;28;21273;-68
2021/01/24 03:41:15;;;;;;;3.80;3.60;;;19.80;45.80;;;;;;5052592;28;20482;-69
2021/01/24 03:43:42;;;;;;;3.50;3.20;;;19.80;45.80;;;;;;5055125;28;21117;-67
2021/01/24 03:46:08;;;;;;;4.87;3.60;;;19.80;45.90;;;;;;5053844;28;21252;-68
2021/01/24 03:48:34;;;;;;;3.73;3.50;;;19.70;45.80;;;;;;5054727;28;21151;-68
2021/01/24 03:51:00;;;;;;;3.20;2.90;;;19.70;45.70;;;;;;5057609;28;21073;-68
2021/01/24 03:53:26;;;;;;;3.30;3.10;;;19.70;45.80;;;;;;5053558;28;20494;-68
2021/01/24 03:55:53;;;;;;;3.93;3.47;;;19.70;45.80;;;;;;5054267;28;21546;-67
2021/01/24 03:58:19;;;;;;;3.83;3.60;;;19.70;45.80;;;;;;5053301;28;20901;-68
2021/01/24 04:00:45;;;;;;;3.67;3.40;;;19.70;45.80;;;;;;5052353;28;21030;-69
2021/01/24 04:03:12;;;;;;;3.27;2.97;;;19.60;45.70;;;;;;5055764;28;20469;-68
2021/01/24 04:05:38;;;;;;;7.07;3.47;;;19.60;45.70;;;;;;5058868;28;20479;-69
2021/01/24 04:08:04;;;;;;;3.17;2.97;;;19.60;45.60;;;;;;5053967;28;20508;-69
2021/01/24 04:10:30;;;;;;;3.40;3.20;;;19.70;45.70;;;;;;5051946;28;20535;-69
2021/01/24 04:12:57;;;;;;;3.33;3.13;;;19.60;45.60;;;;;;5055224;28;20482;-70
2021/01/24 04:15:23;;;;;;;5.63;3.77;;;19.70;45.70;;;;;;5056005;28;20993;-69
2021/01/24 04:17:50;;;;;;;4.70;3.43;;;19.70;45.80;;;;;;5042036;28;20536;-69
2021/01/24 04:20:16;;;;;;;3.53;3.30;;;19.60;45.60;;;;;;5053797;28;20490;-70
2021/01/24 04:22:42;;;;;;;3.40;3.17;;;19.60;45.60;;;;;;5053358;28;20481;-69
2021/01/24 04:25:11;;;;;;;3.03;2.90;;;19.60;45.40;;;;;;5056218;28;20482;-70
2021/01/24 04:27:37;;;;;;;3.70;3.50;;;19.60;45.40;;;;;;5053179;28;20478;-69
2021/01/24 04:30:06;;;;;;;3.20;3.10;;;19.70;45.50;;;;;;5053728;28;20564;-68
2021/01/24 04:32:32;;;;;;;3.63;3.43;;;19.70;45.60;;;;;;5056044;28;20492;-69
2021/01/24 04:34:58;;;;;;;3.30;3.20;;;19.70;46.20;;;;;;5051312;28;20489;-68
2021/01/24 04:37:25;;;;;;;3.90;3.70;;;19.60;45.40;;;;;;5053161;28;20539;-69
2021/01/24 04:39:51;;;;;;;5.27;2.80;;;19.60;45.40;;;;;;5055846;28;20564;-69
2021/01/24 04:42:17;;;;;;;3.47;3.17;;;19.70;45.50;;;;;;5053138;28;20500;-68
2021/01/24 04:44:43;;;;;;;3.67;3.30;;;19.60;45.40;;;;;;5051725;28;20903;-69
2021/01/24 04:47:10;;;;;;;3.57;3.27;;;19.60;45.40;;;;;;5052249;28;20484;-68
2021/01/24 04:49:36;;;;;;;3.93;3.20;;;19.60;45.40;;;;;;5039982;28;20509;-68
2021/01/24 04:52:03;;;;;;;4.00;3.77;;;19.60;45.40;;;;;;5051707;28;20489;-69
2021/01/24 04:54:29;;;;;;;3.57;3.37;;;19.60;45.40;;;;;;5052243;28;20481;-69
2021/01/24 04:56:55;;;;;;;3.17;3.00;;;19.60;45.40;;;;;;5053080;28;20485;-69
2021/01/24 04:59:21;;;;;;;3.20;3.00;;;19.60;45.40;;;;;;5051727;28;20482;-68
2021/01/24 05:01:48;;;;;;;3.10;2.97;;;19.60;45.40;;;;;;5052953;28;20490;-68
2021/01/24 05:04:15;;;;;;;3.30;3.07;;;19.60;45.40;;;;;;5049688;28;20482;-69
2021/01/24 05:06:42;;;;;;;3.90;3.60;;;19.50;45.20;;;;;;5039035;28;20482;-68
2021/01/24 05:09:08;;;;;;;3.83;3.53;;;19.60;45.30;;;;;;5040066;28;20820;-69
2021/01/24 05:11:34;;;;;;;3.47;3.27;;;19.60;45.40;;;;;;5050661;28;20505;-69
2021/01/24 05:14:19;;;;;;;3.17;3.00;;;19.60;45.40;;;;;;5054320;28;20490;-69
2021/01/24 05:16:47;;;;;;;3.50;3.20;;;19.60;45.30;;;;;;5041269;28;20485;-69
2021/01/24 05:19:14;;;;;;;3.90;3.60;;;19.60;45.20;;;;;;5040071;28;20539;-68
2021/01/24 05:21:41;;;;;;;4.30;3.90;;;19.60;45.20;;;;;;5041051;28;21651;-69
2021/01/24 05:24:08;;;;;;;3.10;3.00;;;19.60;45.10;;;;;;5051760;28;20534;-68
2021/01/24 05:26:36;;;;;;;5.77;3.40;;;19.60;45.00;;;;;;5048919;28;20544;-69
2021/01/24 05:29:03;;;;;;;4.10;3.70;;;19.70;44.90;;;;;;5049837;28;20481;-68
2021/01/24 05:31:29;;;;;;;3.60;3.40;;;19.70;45.00;;;;;;5050207;28;21581;-68
2021/01/24 05:33:56;;;;;;;5.63;3.30;;;19.70;45.00;;;;;;5052498;28;20485;-69
2021/01/24 05:36:23;;;;;;;3.60;3.30;;;19.60;44.90;;;;;;5053458;28;20485;-68
2021/01/24 05:38:49;;;;;;;3.77;3.57;;;19.60;45.00;;;;;;5052622;28;20510;-68
2021/01/24 05:41:16;;;;;;;4.03;3.73;;;19.60;45.10;;;;;;5041299;28;20474;-68
2021/01/24 05:43:43;;;;;;;3.57;3.37;;;19.60;45.10;;;;;;5052035;28;21009;-69
2021/01/24 05:46:10;;;;;;;3.47;3.17;;;19.50;45.10;;;;;;5051059;28;20491;-69
2021/01/24 05:48:38;;;;;;;3.63;3.43;;;19.50;45.10;;;;;;5052704;28;20485;-69
2021/01/24 05:51:05;;;;;;;3.40;3.20;;;19.50;45.20;;;;;;5060353;28;20481;-69
2021/01/24 05:53:36;;;;;;;3.70;3.47;;;19.50;45.20;;;;;;5055738;28;20486;-69
2021/01/24 05:56:06;;;;;;;3.87;3.63;;;19.50;45.10;;;;;;5051261;28;20478;-69
2021/01/24 05:58:33;;;;;;;3.73;3.43;;;19.50;45.00;;;;;;5051804;28;20485;-68
2021/01/24 06:00:59;;;;;;;3.50;3.27;;;19.50;45.00;;;;;;5051562;28;20509;-68
2021/01/24 06:03:25;;;;;;;3.10;2.90;;;19.50;45.00;;;;;;5050637;28;20487;-69
2021/01/24 06:05:51;;;;;;;3.60;3.37;;;19.60;45.00;;;;;;5053781;28;20497;-68
2021/01/24 06:08:17;;;;;;;3.73;3.43;;;19.60;44.80;;;;;;5052955;28;20492;-69
2021/01/24 06:10:44;;;;;;;3.40;3.30;;;19.60;44.80;;;;;;5036905;28;20489;-68
2021/01/24 06:13:17;;;;;;;3.33;3.23;;;19.60;44.90;;;;;;5049277;28;20485;-68
2021/01/24 06:15:43;;;;;;;3.90;3.70;;;19.50;44.80;;;;;;5043524;28;20483;-68
2021/01/24 06:18:14;;;;;;;4.17;3.90;;;19.50;44.60;;;;;;5052978;28;20563;-67
2021/01/24 06:20:42;;;;;;;3.60;3.40;;;19.50;44.30;;;;;;5052889;28;20489;-68
2021/01/24 06:23:09;;;;;;;4.30;4.00;;;19.50;44.20;;;;;;5052261;28;20515;-68
2021/01/24 06:25:37;;;;;;;4.53;4.13;;;19.60;44.30;;;;;;5051461;28;20482;-68
2021/01/24 06:28:07;;;;;;;6.20;3.53;;;19.60;44.20;;;;;;5051776;28;20482;-67
2021/01/24 06:30:33;;;;;;;4.27;3.97;;;19.60;44.10;;;;;;5052434;28;21169;-68
2021/01/24 06:33:12;;;;;;;4.30;4.00;;;19.70;44.10;;;;;;5050175;28;20489;-69
2021/01/24 06:35:43;;;;;;;4.90;4.07;;;19.70;44.10;;;;;;5051426;28;20481;-68
2021/01/24 06:38:09;;;;;;;4.73;4.40;;;19.60;44.10;;;;;;5054936;28;20489;-68
2021/01/24 06:40:42;;;;;;;3.63;3.43;;;19.60;44.90;;;;;;5047476;28;20514;-68
2021/01/24 06:43:09;;;;;;;3.80;3.50;;;19.60;44.20;;;;;;5053552;28;20470;-68
2021/01/24 06:45:44;;;;;;;3.53;3.33;;;19.60;44.20;;;;;;5055660;28;20477;-68
2021/01/24 06:48:14;;;;;;;3.53;3.23;;;19.60;44.30;;;;;;5054221;28;21121;-68
2021/01/24 06:50:42;;;;;;;3.70;3.30;;;19.50;44.10;;;;;;5056144;28;21027;-68
2021/01/24 06:53:09;;;;;;;4.10;3.80;;;19.50;44.40;;;;;;5055720;28;21170;-68
2021/01/24 06:55:36;;;;;;;3.50;3.30;;;19.50;44.30;;;;;;5053663;28;21105;-68
2021/01/24 06:58:22;;;;;;;3.57;3.37;;;19.50;44.50;;;;;;5055186;28;20756;-69
2021/01/24 07:00:49;;;;;;;3.73;3.43;;;19.50;44.60;;;;;;5044626;28;21016;-68
2021/01/24 07:03:19;;;;;;;3.63;3.43;;;19.50;44.40;;;;;;5049774;28;20488;-68
2021/01/24 07:05:45;;;;;;;3.93;3.63;;;19.50;44.30;;;;;;5043775;28;20556;-69
2021/01/24 07:08:29;;;;;;;3.90;3.70;;;19.50;44.40;;;;;;5056332;28;20477;-69
2021/01/24 07:10:55;;;;;;;3.43;3.23;;;19.50;44.50;;;;;;5055353;28;20620;-68
2021/01/24 07:13:32;;;;;;;3.47;3.17;;;19.40;45.10;;;;;;5052328;28;20481;-68
2021/01/24 07:15:59;;;;;;;4.03;3.70;;;19.40;44.50;;;;;;5052666;28;20481;-68
2021/01/24 07:18:25;;;;;;;4.23;3.83;;;19.50;44.50;;;;;;5055470;28;20478;-68
2021/01/24 07:20:52;;;;;;;3.27;3.10;;;19.50;44.40;;;;;;5056664;28;20478;-68
2021/01/24 07:23:18;;;;;;;4.63;3.97;;;19.50;44.20;;;;;;5053076;28;20488;-69
2021/01/24 07:25:44;;;;;;;3.53;3.33;;;19.50;44.30;;;;;;5054240;28;21010;-68
2021/01/24 07:28:11;;;;;;;3.20;2.90;;;19.50;44.10;;;;;;5053081;28;20481;-68
2021/01/24 07:30:39;;;;;;;2.93;2.77;;;19.50;44.10;;;;;;5044964;28;21040;-68
2021/01/24 07:33:06;;;;;;;3.47;3.27;;;19.50;44.30;;;;;;5051308;28;21152;-68
2021/01/24 07:35:34;;;;;;;3.40;3.20;;;19.50;44.10;;;;;;5054753;28;20474;-68
2021/01/24 07:38:00;;;;;;;3.40;3.10;;;19.50;44.30;;;;;;5055231;28;20485;-68
2021/01/24 07:40:27;;;;;;;3.90;3.60;;;19.50;44.40;;;;;;5054374;28;20535;-68
2021/01/24 07:42:54;;;;;;;3.93;3.63;;;19.50;44.60;;;;;;5052196;28;21212;-69
2021/01/24 07:45:20;;;;;;;3.90;3.70;;;19.50;44.40;;;;;;5053173;28;20482;-69
2021/01/24 07:47:47;;;;;;;4.33;4.03;;;19.50;44.30;;;;;;5053040;28;20582;-68
2021/01/24 07:50:13;;;;;;;3.63;3.40;;;19.40;44.00;;;;;;5054321;28;20486;-68
2021/01/24 07:52:39;;;;;;;3.70;3.60;;;19.40;44.00;;;;;;5041820;28;20493;-68
2021/01/24 07:55:07;;;;;;;4.53;4.20;;;19.40;43.80;;;;;;5053118;28;20486;-68
2021/01/24 07:57:33;;;;;;;4.77;4.47;;;19.30;43.70;;;;;;5050831;28;21989;-69
2021/01/24 07:59:59;;;;;;;4.13;3.83;;;19.40;43.60;;;;;;5053807;28;20490;-68
2021/01/24 08:02:26;;;;;;;5.07;4.50;;;19.40;43.60;;;;;;5052165;28;20481;-68
2021/01/24 08:04:53;;;;;;;7.30;4.97;;;19.40;43.90;;;;;;5052550;28;20479;-68
2021/01/24 08:07:19;;;;;;;4.57;3.07;;;19.40;43.70;;;;;;5052136;28;20478;-68
2021/01/24 08:09:47;;;;;;;3.90;3.60;;;19.40;44.20;;;;;;5054197;28;20481;-68
2021/01/24 08:12:14;;;;;;;3.53;3.33;;;19.50;44.00;;;;;;5040630;28;21005;-69
2021/01/24 08:14:40;;;;;;;5.23;4.20;;;19.60;43.80;;;;;;5047446;28;21096;-68
2021/01/24 08:17:06;;;;;;;3.97;3.60;;;19.70;43.70;;;;;;5058628;28;20482;-68
2021/01/24 08:19:32;;;;;;;3.70;3.50;;;19.70;43.70;;;;;;5050057;28;21147;-68
2021/01/24 08:22:00;;;;;;;3.20;3.00;;;19.70;43.70;;;;;;5050348;28;20824;-68
2021/01/24 08:24:26;;;;;;;3.33;3.23;;;19.80;43.80;;;;;;5047503;28;20487;-68
2021/01/24 08:26:53;;;;;;;4.37;4.07;;;19.80;43.90;;;;;;5062579;28;20483;-68
2021/01/24 08:29:19;;;;;;;5.03;4.50;;;19.70;43.80;;;;;;5052076;28;20481;-68
2021/01/24 08:31:45;;;;;;;4.10;3.43;;;19.70;43.80;;;;;;5053829;28;20497;-69
2021/01/24 08:34:12;;;;;;;4.20;3.90;;;19.70;44.00;;;;;;5040534;28;21271;-67
2021/01/24 08:36:38;;;;;;;5.13;4.63;;;19.60;44.00;;;;;;5046564;28;21036;-68
2021/01/24 08:39:05;;;;;;;6.07;4.33;;;19.70;44.80;;;;;;5049186;28;20482;-68
2021/01/24 08:41:32;;;;;;;3.63;3.43;;;19.60;43.90;;;;;;5042527;28;20481;-69
2021/01/24 08:44:02;;;;;;;4.17;3.87;;;19.70;43.90;;;;;;5049502;28;20489;-68
2021/01/24 08:46:29;;;;;;;4.93;4.10;;;19.80;43.80;;;;;;5051489;28;20485;-70
2021/01/24 08:48:59;;;;;;;5.23;4.33;;;19.90;43.50;;;;;;5050860;28;20494;-70
2021/01/24 08:51:25;;;;;;;5.67;4.63;;;19.90;43.70;;;;;;5050940;28;20497;-69
2021/01/24 08:53:52;;;;;;;4.37;4.07;;;20.00;43.00;;;;;;5051384;28;20491;-69
2021/01/24 08:56:22;;;;;;;5.70;4.43;;;20.00;43.00;;;;;;5052212;28;20496;-69
2021/01/24 08:58:48;;;;;;;4.03;3.70;;;20.10;43.00;;;;;;5048025;28;20558;-70
2021/01/24 09:01:14;;;;;;;3.53;3.23;;;20.10;42.90;;;;;;5053127;28;20485;-70
2021/01/24 09:03:40;;;;;;;4.27;3.97;;;20.10;43.00;;;;;;5051092;28;20471;-70
2021/01/24 09:06:14;;;;;;;4.33;3.93;;;20.10;43.10;;;;;;5052584;28;20481;-70
2021/01/24 09:08:45;;;;;;;4.47;4.27;;;20.00;43.00;;;;;;5051378;28;20600;-70
2021/01/24 09:11:11;;;;;;;4.30;3.90;;;20.00;43.00;;;;;;5050657;28;20574;-69
2021/01/24 09:13:38;;;;;;;3.90;3.67;;;19.90;43.10;;;;;;5047580;28;20582;-68
2021/01/24 09:16:05;;;;;;;3.83;3.63;;;19.90;43.20;;;;;;5049942;28;20539;-69
2021/01/24 09:18:31;;;;;;;4.20;4.00;;;19.80;43.10;;;;;;5052660;28;20512;-68
2021/01/24 09:20:57;;;;;;;5.00;4.30;;;19.80;43.10;;;;;;5040306;28;20595;-69
2021/01/24 09:23:23;;;;;;;3.77;3.57;;;19.70;43.00;;;;;;5051673;28;20477;-69
2021/01/24 09:25:50;;;;;;;3.97;3.70;;;19.70;42.90;;;;;;5056763;28;20544;-70
2021/01/24 09:28:16;;;;;;;4.67;4.27;;;19.70;43.10;;;;;;5046557;28;20469;-69
2021/01/24 09:30:43;;;;;;;3.60;3.40;;;19.60;43.20;;;;;;5051995;28;20474;-69
2021/01/24 09:33:09;;;;;;;4.10;3.90;;;19.60;43.30;;;;;;5052539;28;20481;-69
2021/01/24 09:35:35;;;;;;;4.67;4.27;;;19.50;43.30;;;;;;5047067;28;20965;-69
2021/01/24 09:38:01;;;;;;;4.90;4.40;;;19.50;43.80;;;;;;5039575;28;20908;-69
2021/01/24 09:40:27;;;;;;;4.80;4.17;;;19.50;43.70;;;;;;5053090;28;20501;-69
2021/01/24 09:42:53;;;;;;;4.93;4.43;;;19.50;43.70;;;;;;5050405;28;20489;-69
2021/01/24 09:45:20;;;;;;;5.60;5.10;;;19.60;43.70;;;;;;5049893;28;20478;-69
2021/01/24 09:47:48;;;;;;;4.07;3.87;;;19.60;43.70;;;;;;5050139;28;20493;-69
2021/01/24 09:50:14;;;;;;;4.50;4.17;;;19.60;43.70;;;;;;5049242;28;20649;-69
2021/01/24 09:52:40;;;;;;;3.60;3.40;;;19.60;43.70;;;;;;5045774;28;20483;-68
2021/01/24 09:55:08;;;;;;;5.30;4.67;;;19.50;43.50;;;;;;5051386;28;20512;-68
2021/01/24 09:57:34;;;;;;;5.30;4.87;;;19.40;43.50;;;;;;5048648;28;20478;-69
2021/01/24 10:00:00;;;;;;;4.93;4.53;;;19.30;43.50;;;;;;5052204;28;20473;-68
2021/01/24 10:02:27;;;;;;;4.87;4.47;;;19.20;43.70;;;;;;5052408;28;20543;-68
2021/01/24 10:04:54;;;;;;;5.00;4.60;;;19.30;43.60;;;;;;5052070;28;21491;-68
2021/01/24 10:07:20;;;;;;;4.40;3.83;;;19.30;43.60;;;;;;5046574;28;20534;-69
2021/01/24 10:09:46;;;;;;;5.23;4.73;;;19.40;43.60;;;;;;5050323;28;20477;-68
2021/01/24 10:12:12;;;;;;;6.20;4.87;;;19.40;43.40;;;;;;5052086;28;21003;-68
2021/01/24 10:14:38;;;;;;;4.93;4.53;;;19.30;43.50;;;;;;5050774;28;20693;-68
2021/01/24 10:17:04;;;;;;;4.00;3.70;;;19.30;43.50;;;;;;5053143;28;20899;-68
2021/01/24 10:19:31;;;;;;;4.40;4.10;;;19.30;43.60;;;;;;5054540;28;20863;-68
2021/01/24 10:21:58;;;;;;;4.43;4.03;;;19.30;43.70;;;;;;5053847;28;20494;-69
2021/01/24 10:24:24;;;;;;;6.83;4.13;;;19.30;43.60;;;;;;5051849;28;20481;-69
2021/01/24 10:26:50;;;;;;;4.83;4.33;;;19.30;43.70;;;;;;5052725;28;20482;-69
2021/01/24 10:29:16;;;;;;;5.27;4.67;;;19.20;43.70;;;;;;5053121;28;20570;-69
2021/01/24 10:31:42;;;;;;;4.50;4.20;;;19.20;43.80;;;;;;5042209;28;20469;-69
2021/01/24 10:34:08;;;;;;;4.73;3.73;;;19.20;43.90;;;;;;5040397;28;20479;-69
2021/01/24 10:36:35;;;;;;;8.37;3.60;;;19.20;44.00;;;;;;5051641;28;20487;-69
2021/01/24 10:39:02;;;;;;;4.07;3.70;;;19.10;43.90;;;;;;5053313;28;20489;-69
2021/01/24 10:41:28;;;;;;;5.40;4.40;;;19.20;44.10;;;;;;5050622;28;21232;-69
2021/01/24 10:43:54;;;;;;;4.60;4.20;;;19.20;44.10;;;;;;5052759;28;21429;-70
2021/01/24 10:46:20;;;;;;;4.47;4.17;;;19.20;44.20;;;;;;5052126;28;20493;-69
2021/01/24 10:48:46;;;;;;;3.47;3.37;;;19.10;44.00;;;;;;5051630;28;20490;-69
2021/01/24 10:51:12;;;;;;;4.47;4.07;;;19.20;44.10;;;;;;5050833;28;20539;-68
2021/01/24 10:53:38;;;;;;;4.80;4.50;;;19.20;43.90;;;;;;5050093;28;20493;-69
2021/01/24 10:56:06;;;;;;;3.93;3.73;;;19.30;43.90;;;;;;5050601;28;20478;-68
2021/01/24 10:58:32;;;;;;;7.80;3.97;;;19.30;43.90;;;;;;5054269;28;20532;-69
2021/01/24 11:00:58;;;;;;;4.40;4.10;;;19.30;43.80;;;;;;5043301;28;20482;-69
2021/01/24 11:03:25;;;;;;;4.50;4.10;;;19.30;43.70;;;;;;5047896;28;20491;-69
2021/01/24 11:05:51;;;;;;;5.07;4.30;;;19.30;43.70;;;;;;5053965;28;20603;-69
2021/01/24 11:08:17;;;;;;;4.03;3.33;;;19.20;43.50;;;;;;5054630;28;21012;-69
2021/01/24 11:10:43;;;;;;;4.03;3.80;;;19.30;43.40;;;;;;5038163;28;20888;-69
2021/01/24 11:13:10;;;;;;;4.43;4.23;;;19.30;43.40;;;;;;5052187;28;20474;-69
2021/01/24 11:15:36;;;;;;;4.37;4.00;;;19.40;43.40;;;;;;5052144;28;21515;-69
2021/01/24 11:18:03;;;;;;;3.70;3.50;;;19.40;43.20;;;;;;5053061;28;21012;-69
2021/01/24 11:20:29;;;;;;;6.30;4.47;;;19.40;43.00;;;;;;5052863;28;20474;-69
2021/01/24 11:22:55;;;;;;;4.07;3.77;;;19.40;43.00;;;;;;5050391;28;20489;-69
2021/01/24 11:25:21;;;;;;;3.73;3.53;;;19.50;43.00;;;;;;5047266;28;20542;-69
2021/01/24 11:27:47;;;;;;;3.80;3.60;;;19.50;43.00;;;;;;5038889;28;20489;-69
2021/01/24 11:30:15;;;;;;;3.70;3.40;;;19.50;43.00;;;;;;5052234;28;20469;-70
2021/01/24 11:32:41;;;;;;;6.00;4.50;;;19.50;42.80;;;;;;5051210;28;20489;-69
2021/01/24 11:35:08;;;;;;;4.90;4.57;;;19.50;42.80;;;;;;5051225;28;20492;-70
2021/01/24 11:37:34;;;;;;;4.60;4.20;;;19.50;42.90;;;;;;5035562;28;20524;-69
2021/01/24 11:40:00;;;;;;;3.30;3.10;;;19.50;42.90;;;;;;5050224;28;20488;-70
2021/01/24 11:42:27;;;;;;;5.00;4.13;;;19.50;43.00;;;;;;5049747;28;20507;-69
2021/01/24 11:44:53;;;;;;;3.87;3.43;;;19.40;43.00;;;;;;5051485;28;20485;-70
2021/01/24 11:47:21;;;;;;;4.17;3.03;;;19.40;43.10;;;;;;5040081;28;20485;-70
2021/01/24 11:49:47;;;;;;;4.40;3.80;;;19.40;43.30;;;;;;5050484;28;20486;-71
2021/01/24 11:52:13;;;;;;;3.60;3.30;;;19.30;43.20;;;;;;5046107;28;20517;-69
2021/01/24 11:54:39;;;;;;;3.37;3.13;;;19.30;43.30;;;;;;5036852;28;20474;-70
2021/01/24 11:57:06;;;;;;;3.50;3.30;;;19.30;43.20;;;;;;5045986;28;20485;-69
2021/01/24 11:59:32;;;;;;;3.67;3.37;;;19.30;43.40;;;;;;5038111;28;20478;-69
2021/01/24 12:01:58;;;;;;;3.60;3.40;;;19.40;43.40;;;;;;5039159;28;20520;-69
2021/01/24 12:04:25;;;;;;;4.07;3.83;;;19.40;43.10;;;;;;5051326;28;20484;-70
2021/01/24 12:06:52;;;;;;;4.00;3.70;;;19.40;43.00;;;;;;5051730;28;20511;-69
2021/01/24 12:09:18;;;;;;;5.67;3.40;;;19.40;43.10;;;;;;5052023;28;20481;-69
2021/01/24 12:11:44;;;;;;;4.10;3.87;;;19.30;43.10;;;;;;5032332;28;20941;-69
2021/01/24 12:14:10;;;;;;;4.07;3.77;;;19.30;43.10;;;;;;5053771;28;21060;-69
2021/01/24 12:16:36;;;;;;;3.70;3.43;;;19.40;43.20;;;;;;5050780;28;20520;-69
2021/01/24 12:19:02;;;;;;;3.60;3.40;;;19.40;43.10;;;;;;5050069;28;21012;-70
2021/01/24 12:21:29;;;;;;;4.63;3.50;;;19.40;43.00;;;;;;5048240;28;20486;-69
2021/01/24 12:23:55;;;;;;;3.70;3.50;;;19.40;43.00;;;;;;5051873;28;21263;-69
2021/01/24 12:26:22;;;;;;;4.30;4.10;;;19.40;43.10;;;;;;5039830;28;21060;-69
2021/01/24 12:28:48;;;;;;;3.93;3.53;;;19.40;43.20;;;;;;5037077;28;20489;-69
2021/01/24 12:31:14;;;;;;;3.80;3.50;;;19.40;43.20;;;;;;5046159;28;20482;-69
2021/01/24 12:33:40;;;;;;;3.50;3.30;;;19.40;43.30;;;;;;5046881;28;20474;-69
2021/01/24 12:36:07;;;;;;;4.07;3.73;;;19.40;43.20;;;;;;5052141;28;20489;-69
2021/01/24 12:38:34;;;;;;;3.53;3.00;;;19.40;43.10;;;;;;5050304;28;20486;-69
2021/01/24 12:41:00;;;;;;;4.60;3.37;;;19.40;43.20;;;;;;5049131;28;20512;-70
2021/01/24 12:43:27;;;;;;;3.70;3.40;;;19.40;43.00;;;;;;5051213;28;20497;-69
2021/01/24 12:45:53;;;;;;;4.47;4.10;;;19.40;43.10;;;;;;5050284;28;20544;-69